Time;durP1;ratioP1;P1;durP2;ratioP2;P2;SDS_P1;SDS_P2;PMS_P1;PMS_P2;Temp;Humidity;BMP_temperature;BMP_pressure;BME280_temperature;BME280_humidity;BME280_pressure;Samples;Min_cycle;Max_cycle;Signal;HPM_P1;HPM_P2
2023/09/04 00:00:39;;;;;;;0.00;0.00;;;21.20;93.10;;;;;;5042284;28;20039;-74
2023/09/04 00:03:05;;;;;;;0.00;0.00;;;21.20;92.80;;;;;;5040317;28;20036;-75
2023/09/04 00:05:34;;;;;;;0.00;0.00;;;21.30;92.40;;;;;;5039195;28;20035;-74
2023/09/04 00:08:00;;;;;;;0.00;0.00;;;21.20;92.40;;;;;;5038658;28;20021;-75
2023/09/04 00:10:26;;;;;;;0.00;0.00;;;21.10;92.70;;;;;;5040666;28;20748;-75
2023/09/04 00:12:52;;;;;;;0.00;0.00;;;21.30;91.60;;;;;;5036670;28;20138;-74
2023/09/04 00:15:17;;;;;;;0.00;0.00;;;21.20;92.10;;;;;;5037623;28;20061;-75
2023/09/04 00:17:47;;;;;;;0.00;0.00;;;21.00;92.90;;;;;;5038639;28;20032;-75
2023/09/04 00:20:13;;;;;;;0.63;0.63;;;21.10;91.90;;;;;;5037277;28;20041;-76
2023/09/04 00:22:39;;;;;;;0.00;0.00;;;20.90;92.60;;;;;;5040531;28;20120;-75
2023/09/04 00:25:05;;;;;;;0.00;0.00;;;20.90;92.50;;;;;;5041964;28;20028;-75
2023/09/04 00:27:31;;;;;;;0.00;0.00;;;20.80;92.70;;;;;;5041960;28;20028;-75
2023/09/04 00:29:56;;;;;;;0.00;0.00;;;20.70;92.80;;;;;;5042101;28;20025;-76
2023/09/04 00:32:22;;;;;;;0.00;0.00;;;20.90;91.80;;;;;;5041817;28;20567;-75
2023/09/04 00:34:48;;;;;;;0.00;0.00;;;21.00;91.10;;;;;;5042084;28;20570;-75
2023/09/04 00:37:13;;;;;;;0.00;0.00;;;21.00;90.90;;;;;;5042149;28;20044;-75
2023/09/04 00:39:39;;;;;;;0.00;0.00;;;21.00;90.40;;;;;;5042377;28;20033;-75
2023/09/04 00:42:05;;;;;;;0.00;0.00;;;21.00;90.80;;;;;;5042460;28;20037;-75
2023/09/04 00:44:31;;;;;;;0.30;0.30;;;20.80;91.20;;;;;;5042945;28;20033;-75
2023/09/04 00:46:58;;;;;;;0.00;0.00;;;20.80;91.20;;;;;;5041529;28;20033;-76
2023/09/04 00:49:24;;;;;;;0.98;0.90;;;20.90;90.40;;;;;;5042390;28;20029;-75
2023/09/04 00:51:50;;;;;;;0.00;0.00;;;21.00;90.20;;;;;;5042243;28;20040;-74
2023/09/04 00:54:17;;;;;;;0.00;0.00;;;20.90;90.00;;;;;;5041594;28;20487;-74
2023/09/04 00:56:44;;;;;;;0.00;0.00;;;20.90;89.60;;;;;;5041821;28;20283;-76
2023/09/04 00:59:10;;;;;;;0.10;0.10;;;20.80;90.00;;;;;;5042293;28;20029;-75
2023/09/04 01:01:35;;;;;;;0.00;0.00;;;21.10;87.90;;;;;;5046352;28;20031;-74
2023/09/04 01:04:01;;;;;;;0.00;0.00;;;21.20;86.30;;;;;;5045615;28;20033;-75
2023/09/04 01:06:27;;;;;;;0.00;0.00;;;21.10;87.20;;;;;;5045842;28;20445;-75
2023/09/04 01:08:55;;;;;;;0.00;0.00;;;20.80;89.10;;;;;;5045925;28;20339;-76
2023/09/04 01:11:23;;;;;;;0.00;0.00;;;20.70;89.20;;;;;;5040933;28;20031;-75
2023/09/04 01:13:55;;;;;;;0.00;0.00;;;20.80;88.90;;;;;;5045822;28;20112;-74
2023/09/04 01:16:23;;;;;;;0.00;0.00;;;20.80;87.90;;;;;;5036369;28;20083;-75
2023/09/04 01:18:50;;;;;;;0.00;0.00;;;20.80;87.20;;;;;;5045674;28;20052;-76
2023/09/04 01:21:16;;;;;;;0.00;0.00;;;20.80;86.80;;;;;;5045738;28;20029;-74
2023/09/04 01:23:42;;;;;;;0.00;0.00;;;20.80;86.10;;;;;;5043401;28;20027;-74
2023/09/04 01:26:46;;;;;;;0.00;0.00;;;20.90;85.90;;;;;;5042055;28;20036;-75
2023/09/04 01:29:52;;;;;;;0.00;0.00;;;20.70;87.00;;;;;;5019651;28;20079;-74
2023/09/04 01:32:27;;;;;;;0.15;0.15;;;20.70;86.00;;;;;;4997819;28;20045;-74
2023/09/04 01:34:54;;;;;;;0.00;0.00;;;20.70;86.10;;;;;;5035589;28;20048;-75
2023/09/04 01:37:21;;;;;;;0.00;0.00;;;20.80;85.50;;;;;;5045063;28;20052;-75
2023/09/04 01:39:48;;;;;;;0.00;0.00;;;20.70;85.60;;;;;;5046796;28;20098;-75
2023/09/04 01:42:14;;;;;;;0.00;0.00;;;20.80;85.10;;;;;;5046010;28;20048;-75
2023/09/04 01:44:42;;;;;;;0.00;0.00;;;20.70;85.30;;;;;;5044428;28;20480;-74
2023/09/04 01:47:08;;;;;;;0.00;0.00;;;20.80;84.40;;;;;;5045854;28;20101;-76
2023/09/04 01:49:34;;;;;;;0.00;0.00;;;20.80;84.40;;;;;;5044057;28;20638;-75
2023/09/04 01:52:00;;;;;;;0.00;0.00;;;20.80;84.70;;;;;;5045262;28;20025;-74
2023/09/04 01:54:26;;;;;;;0.20;0.20;;;20.90;83.90;;;;;;5045455;28;20082;-74
2023/09/04 01:56:52;;;;;;;;;;;21.10;82.10;;;;;;5045103;28;20044;-74
2023/09/04 01:59:18;;;;;;;0.00;0.00;;;21.00;82.60;;;;;;5045503;28;19908;-75
2023/09/04 02:01:43;;;;;;;0.73;0.43;;;21.00;83.60;;;;;;5043262;28;20271;-74
2023/09/04 02:04:09;;;;;;;0.00;0.00;;;20.80;83.40;;;;;;5041314;28;20048;-74
2023/09/04 02:06:34;;;;;;;0.00;0.00;;;20.80;83.00;;;;;;5044587;28;20021;-75
2023/09/04 02:09:00;;;;;;;0.00;0.00;;;20.80;82.60;;;;;;5040131;28;20037;-74
2023/09/04 02:11:26;;;;;;;0.00;0.00;;;20.90;82.00;;;;;;5043271;28;20464;-74
2023/09/04 02:13:51;;;;;;;0.00;0.00;;;20.90;82.20;;;;;;5043197;28;20060;-75
2023/09/04 02:16:17;;;;;;;0.00;0.00;;;20.80;82.90;;;;;;5042739;28;20037;-75
2023/09/04 02:18:43;;;;;;;0.00;0.00;;;20.60;84.10;;;;;;5042766;28;20726;-75
2023/09/04 02:21:09;;;;;;;0.00;0.00;;;20.70;83.60;;;;;;5041674;28;20032;-76
2023/09/04 02:23:35;;;;;;;0.00;0.00;;;20.70;83.40;;;;;;5041324;28;20126;-75
2023/09/04 02:26:01;;;;;;;0.00;0.00;;;20.60;83.80;;;;;;5043149;28;20029;-76
2023/09/04 02:28:26;;;;;;;0.00;0.00;;;20.70;84.00;;;;;;5041470;28;20091;-75
2023/09/04 02:30:52;;;;;;;0.00;0.00;;;20.50;85.30;;;;;;5043119;28;20297;-75
2023/09/04 02:33:18;;;;;;;0.00;0.00;;;20.40;86.20;;;;;;5042042;28;20040;-76
2023/09/04 02:35:43;;;;;;;0.00;0.00;;;20.40;86.90;;;;;;5042683;28;20048;-76
2023/09/04 02:38:09;;;;;;;0.00;0.00;;;20.40;86.80;;;;;;5041362;28;20048;-74
2023/09/04 02:40:35;;;;;;;0.00;0.00;;;20.30;87.40;;;;;;5043018;28;20137;-75
2023/09/04 02:43:01;;;;;;;0.00;0.00;;;20.30;87.30;;;;;;5042449;28;20074;-75
2023/09/04 02:45:27;;;;;;;0.00;0.00;;;20.20;88.20;;;;;;5042742;28;20037;-75
2023/09/04 02:47:53;;;;;;;0.00;0.00;;;20.20;88.00;;;;;;5041366;28;20029;-74
2023/09/04 02:50:18;;;;;;;0.00;0.00;;;20.20;87.90;;;;;;5042394;28;20029;-75
2023/09/04 02:52:44;;;;;;;0.00;0.00;;;20.10;88.40;;;;;;5043608;28;20369;-75
2023/09/04 02:55:11;;;;;;;0.00;0.00;;;20.10;88.20;;;;;;5043154;28;20029;-75
2023/09/04 02:57:37;;;;;;;0.00;0.00;;;20.20;87.80;;;;;;5039770;28;20381;-74
2023/09/04 03:00:06;;;;;;;0.00;0.00;;;20.20;87.70;;;;;;5042546;28;20103;-74
2023/09/04 03:02:33;;;;;;;0.40;0.40;;;20.10;88.00;;;;;;5040332;28;20271;-75
2023/09/04 03:04:58;;;;;;;0.00;0.00;;;20.10;87.50;;;;;;5044435;28;20036;-76
2023/09/04 03:07:27;;;;;;;0.00;0.00;;;20.10;87.50;;;;;;5040669;28;20079;-76
2023/09/04 03:09:55;;;;;;;0.00;0.00;;;20.10;87.60;;;;;;5031410;28;20075;-75
2023/09/04 03:12:22;;;;;;;0.00;0.00;;;20.00;88.00;;;;;;5041730;28;20034;-77
2023/09/04 03:14:52;;;;;;;0.00;0.00;;;20.10;87.30;;;;;;5043441;28;20027;-75
2023/09/04 03:17:18;;;;;;;0.00;0.00;;;20.10;87.70;;;;;;5043774;28;20120;-75
2023/09/04 03:19:44;;;;;;;0.00;0.00;;;20.00;88.60;;;;;;5042610;28;20116;-75
2023/09/04 03:22:09;;;;;;;0.00;0.00;;;20.00;88.50;;;;;;5042108;28;20246;-75
2023/09/04 03:24:35;;;;;;;0.00;0.00;;;20.00;89.10;;;;;;5041508;28;20047;-75
2023/09/04 03:27:01;;;;;;;0.00;0.00;;;19.90;90.00;;;;;;5042806;28;20037;-76
2023/09/04 03:29:26;;;;;;;0.00;0.00;;;19.90;89.10;;;;;;5043841;28;20029;-77
2023/09/04 03:31:52;;;;;;;0.00;0.00;;;19.80;90.00;;;;;;5041421;28;20033;-75
2023/09/04 03:34:19;;;;;;;0.00;0.00;;;19.90;89.70;;;;;;5043290;28;20053;-75
2023/09/04 03:36:46;;;;;;;0.00;0.00;;;19.80;90.20;;;;;;5046979;28;20455;-75
2023/09/04 03:39:12;;;;;;;0.00;0.00;;;19.70;90.50;;;;;;5043502;28;20044;-75
2023/09/04 03:41:37;;;;;;;0.00;0.00;;;19.60;90.70;;;;;;5043697;28;20029;-75
2023/09/04 03:44:03;;;;;;;0.00;0.00;;;19.70;90.50;;;;;;5043632;28;20039;-75
2023/09/04 03:46:29;;;;;;;0.00;0.00;;;19.70;90.50;;;;;;5041325;28;20033;-76
2023/09/04 03:48:55;;;;;;;0.00;0.00;;;19.70;90.50;;;;;;5042938;28;20082;-76
2023/09/04 03:51:20;;;;;;;0.00;0.00;;;19.70;90.70;;;;;;5043300;28;20033;-75
2023/09/04 03:53:46;;;;;;;0.00;0.00;;;19.80;90.40;;;;;;5042996;28;20032;-75
2023/09/04 03:56:12;;;;;;;0.00;0.00;;;19.80;90.10;;;;;;5042370;28;20033;-75
2023/09/04 03:58:37;;;;;;;0.57;0.57;;;19.80;90.40;;;;;;5040367;28;20037;-75
2023/09/04 04:01:06;;;;;;;0.00;0.00;;;19.80;90.10;;;;;;5042998;28;20021;-75
2023/09/04 04:03:32;;;;;;;0.17;0.17;;;19.80;90.30;;;;;;5039724;28;20578;-74
2023/09/04 04:05:57;;;;;;;0.00;0.00;;;19.60;90.50;;;;;;5041619;28;20025;-75
2023/09/04 04:08:23;;;;;;;0.00;0.00;;;19.80;90.30;;;;;;5040133;28;20763;-76
2023/09/04 04:10:49;;;;;;;0.00;0.00;;;19.70;90.30;;;;;;5040412;28;20029;-76
2023/09/04 04:13:14;;;;;;;0.00;0.00;;;19.70;90.30;;;;;;5040636;28;20025;-75
2023/09/04 04:15:41;;;;;;;0.00;0.00;;;19.80;90.20;;;;;;5042154;28;20033;-75
2023/09/04 04:18:10;;;;;;;0.00;0.00;;;19.70;90.50;;;;;;5040072;28;20116;-74
2023/09/04 04:20:36;;;;;;;0.00;0.00;;;19.70;90.70;;;;;;5042674;28;20055;-75
2023/09/04 04:23:02;;;;;;;0.00;0.00;;;19.70;90.70;;;;;;5041369;28;20815;-74
2023/09/04 04:25:28;;;;;;;0.00;0.00;;;19.60;90.80;;;;;;5042598;28;20037;-75
2023/09/04 04:27:54;;;;;;;0.00;0.00;;;19.70;90.60;;;;;;5040929;28;20554;-74
2023/09/04 04:30:20;;;;;;;0.00;0.00;;;19.60;90.80;;;;;;5042128;28;20056;-73
2023/09/04 04:32:46;;;;;;;0.00;0.00;;;19.60;90.60;;;;;;5040475;28;20285;-74
2023/09/04 04:35:11;;;;;;;0.00;0.00;;;19.60;90.60;;;;;;5037570;28;20041;-75
2023/09/04 04:37:37;;;;;;;0.00;0.00;;;19.60;90.60;;;;;;5041099;28;20048;-73
2023/09/04 04:40:03;;;;;;;0.00;0.00;;;19.50;91.10;;;;;;5043190;28;20051;-75
2023/09/04 04:42:29;;;;;;;0.00;0.00;;;19.50;90.80;;;;;;5036708;28;20426;-74
2023/09/04 04:44:55;;;;;;;0.00;0.00;;;19.70;90.40;;;;;;5042794;28;20037;-73
2023/09/04 04:47:21;;;;;;;0.00;0.00;;;19.60;90.50;;;;;;5041287;28;20096;-74
2023/09/04 04:49:47;;;;;;;0.00;0.00;;;19.60;90.50;;;;;;5041485;28;20840;-75
2023/09/04 04:52:12;;;;;;;0.00;0.00;;;19.60;90.40;;;;;;5041674;28;20017;-74
2023/09/04 04:54:38;;;;;;;0.00;0.00;;;19.60;90.50;;;;;;5040129;28;20029;-75
2023/09/04 04:57:04;;;;;;;0.00;0.00;;;19.70;90.10;;;;;;5040753;28;20456;-76
2023/09/04 04:59:29;;;;;;;0.00;0.00;;;19.70;90.10;;;;;;5039509;28;20403;-74
2023/09/04 05:01:58;;;;;;;0.00;0.00;;;19.80;89.80;;;;;;5036296;28;21011;-74
2023/09/04 05:04:24;;;;;;;0.00;0.00;;;19.80;89.80;;;;;;5040154;28;20024;-74
2023/09/04 05:06:50;;;;;;;0.00;0.00;;;19.50;90.40;;;;;;5040568;28;20476;-76
2023/09/04 05:09:15;;;;;;;0.00;0.00;;;19.50;90.70;;;;;;5041433;28;20041;-74
2023/09/04 05:11:41;;;;;;;0.00;0.00;;;19.30;91.00;;;;;;5040873;28;20056;-76
2023/09/04 05:14:07;;;;;;;0.10;0.10;;;19.50;90.50;;;;;;5039721;28;20500;-76
2023/09/04 05:16:32;;;;;;;0.00;0.00;;;19.60;90.40;;;;;;5040885;28;20025;-74
2023/09/04 05:18:58;;;;;;;0.00;0.00;;;19.80;90.00;;;;;;5041349;28;20041;-74
2023/09/04 05:21:24;;;;;;;0.00;0.00;;;19.60;90.30;;;;;;5032355;28;20025;-74
2023/09/04 05:23:50;;;;;;;0.00;0.00;;;19.40;91.00;;;;;;5041488;28;20037;-72
2023/09/04 05:26:16;;;;;;;;;;;19.40;90.90;;;;;;5041706;28;21574;-73
2023/09/04 05:28:42;;;;;;;0.00;0.00;;;19.40;90.80;;;;;;5041310;28;20011;-73
2023/09/04 05:31:07;;;;;;;0.00;0.00;;;19.50;90.60;;;;;;5041347;28;20092;-73
2023/09/04 05:33:33;;;;;;;0.00;0.00;;;19.60;90.60;;;;;;5039381;28;20052;-74
2023/09/04 05:35:59;;;;;;;0.00;0.00;;;19.60;90.60;;;;;;5041767;28;20614;-75
2023/09/04 05:38:25;;;;;;;0.00;0.00;;;19.70;90.30;;;;;;5041523;28;20624;-74
2023/09/04 05:40:54;;;;;;;0.00;0.00;;;19.50;91.30;;;;;;5037836;28;20032;-73
2023/09/04 05:43:20;;;;;;;0.73;0.68;;;19.50;91.30;;;;;;5041481;28;20060;-73
2023/09/04 05:45:46;;;;;;;0.38;0.38;;;19.50;91.00;;;;;;5042393;28;20025;-73
2023/09/04 05:48:12;;;;;;;0.00;0.00;;;19.80;90.50;;;;;;5044891;28;20044;-73
2023/09/04 05:50:37;;;;;;;0.00;0.00;;;20.00;89.90;;;;;;5045890;28;20107;-72
2023/09/04 05:53:03;;;;;;;0.00;0.00;;;20.20;88.90;;;;;;5045164;28;20029;-72
2023/09/04 05:55:29;;;;;;;0.00;0.00;;;20.50;86.90;;;;;;5043833;28;20068;-72
2023/09/04 05:57:54;;;;;;;0.00;0.00;;;20.60;87.00;;;;;;5045521;28;20060;-73
2023/09/04 06:00:21;;;;;;;0.00;0.00;;;20.80;85.20;;;;;;5045735;28;20832;-72
2023/09/04 06:02:47;;;;;;;0.00;0.00;;;20.90;83.40;;;;;;5044639;28;20096;-75
2023/09/04 06:05:13;;;;;;;0.00;0.00;;;20.80;85.30;;;;;;5044295;28;20032;-74
2023/09/04 06:07:39;;;;;;;0.00;0.00;;;21.30;80.00;;;;;;5045069;28;20029;-72
2023/09/04 06:10:05;;;;;;;0.00;0.00;;;21.30;81.00;;;;;;5031963;28;20033;-72
2023/09/04 06:12:31;;;;;;;0.00;0.00;;;21.60;79.50;;;;;;5045588;28;20095;-72
2023/09/04 06:14:57;;;;;;;0.00;0.00;;;21.90;78.00;;;;;;5044936;28;20731;-73
2023/09/04 06:17:22;;;;;;;0.30;0.30;;;22.40;75.60;;;;;;5044913;28;20368;-72
2023/09/04 06:19:48;;;;;;;0.00;0.00;;;22.30;78.80;;;;;;5044789;28;20136;-73
2023/09/04 06:22:13;;;;;;;0.00;0.00;;;22.80;76.00;;;;;;5044848;28;20036;-72
2023/09/04 06:24:39;;;;;;;0.00;0.00;;;23.20;74.20;;;;;;5044859;28;20507;-72
2023/09/04 06:27:05;;;;;;;0.00;0.00;;;23.50;72.60;;;;;;5044798;28;20036;-73
2023/09/04 06:29:30;;;;;;;0.00;0.00;;;23.70;74.40;;;;;;5044868;28;20025;-71
2023/09/04 06:31:56;;;;;;;0.00;0.00;;;23.80;73.00;;;;;;5042570;28;20025;-72
2023/09/04 06:34:22;;;;;;;0.00;0.00;;;24.20;73.10;;;;;;5044677;28;20805;-73
2023/09/04 06:36:48;;;;;;;0.00;0.00;;;24.70;72.20;;;;;;5044688;28;20051;-74
2023/09/04 06:39:13;;;;;;;0.00;0.00;;;25.10;71.50;;;;;;5042958;28;20033;-73
2023/09/04 06:41:40;;;;;;;0.00;0.00;;;25.50;71.00;;;;;;5044447;28;20035;-73
2023/09/04 06:44:06;;;;;;;0.00;0.00;;;25.50;71.00;;;;;;5044384;28;20048;-72
2023/09/04 06:46:32;;;;;;;0.00;0.00;;;25.80;71.10;;;;;;5044657;28;20056;-73
2023/09/04 06:48:58;;;;;;;0.00;0.00;;;26.10;70.30;;;;;;5044909;28;20060;-74
2023/09/04 06:51:24;;;;;;;0.00;0.00;;;26.20;68.40;;;;;;5044448;28;20097;-72
2023/09/04 06:53:49;;;;;;;0.00;0.00;;;26.20;67.90;;;;;;5043894;28;20032;-73
2023/09/04 06:56:15;;;;;;;0.00;0.00;;;26.20;67.30;;;;;;5043745;28;20032;-75
2023/09/04 06:58:41;;;;;;;0.00;0.00;;;26.40;67.60;;;;;;5043466;28;20032;-73
2023/09/04 07:01:06;;;;;;;0.00;0.00;;;26.50;65.00;;;;;;5044166;28;20033;-72
2023/09/04 07:03:33;;;;;;;0.25;0.25;;;27.00;64.30;;;;;;5043571;28;20781;-73
2023/09/04 07:05:59;;;;;;;0.00;0.00;;;27.30;63.70;;;;;;5042894;28;20029;-73
2023/09/04 07:08:24;;;;;;;0.00;0.00;;;27.20;64.10;;;;;;5044072;28;20669;-72
2023/09/04 07:10:52;;;;;;;0.00;0.00;;;27.40;61.90;;;;;;5044469;28;20491;-72
2023/09/04 07:13:19;;;;;;;0.00;0.00;;;28.00;62.10;;;;;;5044154;28;20013;-72
2023/09/04 07:15:44;;;;;;;0.00;0.00;;;27.80;61.40;;;;;;5044010;28;20036;-73
2023/09/04 07:18:10;;;;;;;0.00;0.00;;;28.40;61.00;;;;;;5043670;28;20072;-73
2023/09/04 07:20:36;;;;;;;0.00;0.00;;;28.10;59.30;;;;;;5043600;28;20583;-72
2023/09/04 07:23:03;;;;;;;0.00;0.00;;;28.50;58.20;;;;;;5043700;28;20103;-72
2023/09/04 07:25:29;;;;;;;0.00;0.00;;;28.60;57.90;;;;;;5043477;28;20039;-73
2023/09/04 07:27:56;;;;;;;0.00;0.00;;;28.80;58.50;;;;;;5044149;28;20037;-74
2023/09/04 07:30:22;;;;;;;0.00;0.00;;;29.60;58.10;;;;;;5043612;28;20496;-75
2023/09/04 07:32:47;;;;;;;0.00;0.00;;;29.50;56.50;;;;;;5043370;28;20036;-74
2023/09/04 07:35:13;;;;;;;0.00;0.00;;;29.60;55.30;;;;;;5042930;28;20179;-74
2023/09/04 07:37:39;;;;;;;5.30;1.25;;;29.90;55.10;;;;;;5042485;28;20500;-74
2023/09/04 07:40:05;;;;;;;0.00;0.00;;;30.00;53.30;;;;;;5042817;28;20762;-72
2023/09/04 07:42:31;;;;;;;0.75;0.30;;;29.80;50.60;;;;;;5042686;28;20094;-72
2023/09/04 07:44:56;;;;;;;0.88;0.88;;;30.40;47.90;;;;;;5042704;28;20032;-73
2023/09/04 07:47:22;;;;;;;;;;;30.70;49.90;;;;;;5043035;28;20086;-73
2023/09/04 07:49:48;;;;;;;0.00;0.00;;;31.20;48.40;;;;;;5036862;28;19917;-76
2023/09/04 07:52:14;;;;;;;;;;;31.10;45.20;;;;;;5042174;28;20025;-75
2023/09/04 07:54:39;;;;;;;0.00;0.00;;;31.40;46.50;;;;;;5041748;28;19919;-75
2023/09/04 07:57:07;;;;;;;;;;;31.20;45.30;;;;;;5040716;28;20508;-74
2023/09/04 07:59:33;;;;;;;0.00;0.00;;;32.10;45.70;;;;;;5041871;28;19986;-76
2023/09/04 08:01:59;;;;;;;;;;;32.40;45.00;;;;;;5042938;28;20427;-74
2023/09/04 08:04:24;;;;;;;0.00;0.00;;;32.30;44.60;;;;;;5042058;28;19909;-73
2023/09/04 08:06:50;;;;;;;;;;;32.60;45.10;;;;;;5041448;28;20021;-75
2023/09/04 08:09:16;;;;;;;0.00;0.00;;;32.50;43.30;;;;;;5041041;28;20003;-73
2023/09/04 08:11:41;;;;;;;0.00;0.00;;;32.90;41.70;;;;;;5039319;28;20083;-76
2023/09/04 08:14:08;;;;;;;0.00;0.00;;;33.40;41.50;;;;;;5047809;28;20033;-75
2023/09/04 08:16:33;;;;;;;0.00;0.00;;;32.80;40.80;;;;;;5041793;28;20028;-74
2023/09/04 08:18:59;;;;;;;0.00;0.00;;;32.90;42.10;;;;;;5041721;28;20386;-73
2023/09/04 08:21:25;;;;;;;0.00;0.00;;;32.90;41.40;;;;;;5041848;28;20675;-74
2023/09/04 08:23:51;;;;;;;0.00;0.00;;;33.60;40.80;;;;;;5038028;28;20044;-75
2023/09/04 08:26:17;;;;;;;0.00;0.00;;;33.30;39.00;;;;;;5037741;28;20036;-77
2023/09/04 08:28:43;;;;;;;0.00;0.00;;;33.90;40.50;;;;;;5041585;28;20483;-73
2023/09/04 08:31:09;;;;;;;0.00;0.00;;;34.50;38.00;;;;;;5041473;28;20500;-74
2023/09/04 08:33:35;;;;;;;0.00;0.00;;;35.10;39.80;;;;;;4999456;28;1178630;-76
2023/09/04 08:36:01;;;;;;;0.00;0.00;;;35.60;38.50;;;;;;5042189;28;20032;-74
2023/09/04 08:38:27;;;;;;;0.00;0.00;;;34.90;37.20;;;;;;5041358;28;20827;-73
2023/09/04 08:40:59;;;;;;;0.00;0.00;;;35.30;36.80;;;;;;5042163;28;20025;-73
2023/09/04 08:43:29;;;;;;;0.00;0.00;;;34.60;35.30;;;;;;5042849;28;20025;-72
2023/09/04 08:45:58;;;;;;;0.00;0.00;;;34.80;36.50;;;;;;5041323;28;20404;-75
2023/09/04 08:48:28;;;;;;;0.00;0.00;;;35.20;35.60;;;;;;5042437;28;20074;-75
2023/09/04 08:50:55;;;;;;;0.00;0.00;;;35.40;35.30;;;;;;5041941;28;20029;-74
2023/09/04 08:53:21;;;;;;;0.00;0.00;;;36.00;34.20;;;;;;5041745;28;20036;-78
2023/09/04 08:55:47;;;;;;;0.00;0.00;;;35.00;35.00;;;;;;5041962;28;20037;-76
2023/09/04 08:58:14;;;;;;;0.00;0.00;;;35.00;35.60;;;;;;5042125;28;20043;-75
2023/09/04 09:00:40;;;;;;;0.00;0.00;;;35.70;35.40;;;;;;5042434;28;20021;-74
2023/09/04 09:03:06;;;;;;;0.00;0.00;;;35.70;33.80;;;;;;5042245;28;20039;-75
2023/09/04 09:05:33;;;;;;;0.00;0.00;;;36.90;33.80;;;;;;5042064;28;20017;-77
2023/09/04 09:08:00;;;;;;;0.00;0.00;;;36.60;33.30;;;;;;5033047;28;20035;-73
2023/09/04 09:10:26;;;;;;;0.00;0.00;;;37.10;33.20;;;;;;5042605;28;20124;-74
2023/09/04 09:12:51;;;;;;;0.00;0.00;;;38.10;34.60;;;;;;5041072;28;20067;-76
2023/09/04 09:15:18;;;;;;;0.00;0.00;;;37.60;33.50;;;;;;5042433;28;20025;-74
2023/09/04 09:17:54;;;;;;;0.00;0.00;;;38.10;34.00;;;;;;5041929;28;20037;-75
2023/09/04 09:20:49;;;;;;;0.00;0.00;;;37.20;33.50;;;;;;5043026;28;20078;-73
2023/09/04 09:23:14;;;;;;;0.00;0.00;;;37.80;32.20;;;;;;5028369;28;20045;-74
2023/09/04 09:25:40;;;;;;;0.00;0.00;;;36.70;32.50;;;;;;5034856;28;20719;-73
2023/09/04 09:28:07;;;;;;;0.00;0.00;;;36.30;31.70;;;;;;5044845;28;20159;-76
2023/09/04 09:30:43;;;;;;;0.00;0.00;;;36.60;31.30;;;;;;5045130;28;20032;-78
2023/09/04 09:33:15;;;;;;;0.00;0.00;;;36.40;31.80;;;;;;5050193;28;20492;-77
2023/09/04 09:35:41;;;;;;;0.00;0.00;;;36.20;31.80;;;;;;5039654;28;20343;-76
2023/09/04 09:38:07;;;;;;;0.00;0.00;;;37.70;31.80;;;;;;5046055;28;20040;-76
2023/09/04 09:40:33;;;;;;;0.00;0.00;;;37.80;31.20;;;;;;5046280;28;20106;-79
2023/09/04 09:43:00;;;;;;;0.00;0.00;;;37.20;30.80;;;;;;5046446;28;20102;-74
2023/09/04 09:45:33;;;;;;;0.00;0.00;;;37.80;31.20;;;;;;5044769;28;20029;-75
2023/09/04 09:48:07;;;;;;;0.00;0.00;;;37.70;31.30;;;;;;5034913;28;20479;-75
2023/09/04 09:50:37;;;;;;;0.00;0.00;;;36.30;31.60;;;;;;5045537;28;20045;-72
2023/09/04 09:53:03;;;;;;;0.00;0.00;;;36.30;32.50;;;;;;5045563;28;20021;-72
2023/09/04 09:55:31;;;;;;;0.00;0.00;;;37.60;32.80;;;;;;5043066;28;20037;-72
2023/09/04 09:57:58;;;;;;;0.00;0.00;;;37.20;31.80;;;;;;5044946;28;20033;-78
2023/09/04 10:00:28;;;;;;;0.13;0.13;;;37.90;32.00;;;;;;5045244;28;20029;-75
2023/09/04 10:02:54;;;;;;;0.00;0.00;;;38.00;31.60;;;;;;5044791;28;20078;-74
2023/09/04 10:05:22;;;;;;;0.00;0.00;;;37.00;31.60;;;;;;5045307;28;20032;-77
2023/09/04 10:07:54;;;;;;;0.00;0.00;;;36.60;31.30;;;;;;5044188;28;20104;-79
2023/09/04 10:10:20;;;;;;;0.00;0.00;;;36.10;31.70;;;;;;5052949;28;20029;-73
2023/09/04 10:12:45;;;;;;;;;;;35.60;32.50;;;;;;5044848;28;20021;-74
2023/09/04 10:15:15;;;;;;;0.00;0.00;;;35.40;32.10;;;;;;5044435;28;19950;-75
2023/09/04 10:17:46;;;;;;;0.00;0.00;;;35.00;32.90;;;;;;5044936;28;20041;-76
2023/09/04 10:20:13;;;;;;;0.00;0.00;;;34.10;33.30;;;;;;5044909;28;20567;-77
2023/09/04 10:23:03;;;;;;;0.00;0.00;;;34.30;33.90;;;;;;5043630;28;20021;-74
2023/09/04 10:25:50;;;;;;;0.00;0.00;;;34.40;33.30;;;;;;5037329;28;20049;-78
2023/09/04 10:28:24;;;;;;;0.00;0.00;;;34.30;34.40;;;;;;5031731;28;20041;-72
2023/09/04 10:30:53;;;;;;;0.00;0.00;;;34.20;35.40;;;;;;5044891;28;20052;-73
2023/09/04 10:33:20;;;;;;;0.00;0.00;;;34.10;34.90;;;;;;5044122;28;20033;-75
2023/09/04 10:35:46;;;;;;;0.10;0.10;;;34.10;34.20;;;;;;5045650;28;20053;-72
2023/09/04 10:38:12;;;;;;;;;;;33.90;34.90;;;;;;5045802;28;20047;-81
2023/09/04 10:40:39;;;;;;;0.10;0.10;;;33.90;35.00;;;;;;5044664;28;19908;-75
2023/09/04 10:43:05;;;;;;;0.00;0.00;;;33.80;34.60;;;;;;5044875;28;20051;-72
2023/09/04 10:45:32;;;;;;;;;;;33.50;34.90;;;;;;5045119;28;20017;-74
2023/09/04 10:47:59;;;;;;;0.00;0.00;;;33.30;35.60;;;;;;5035035;28;20552;-75
2023/09/04 10:50:30;;;;;;;0.00;0.00;;;33.40;35.70;;;;;;5044796;28;20067;-76
2023/09/04 10:53:01;;;;;;;0.00;0.00;;;33.20;36.00;;;;;;5050547;28;20063;-75
2023/09/04 10:55:27;;;;;;;0.00;0.00;;;33.50;36.00;;;;;;5043871;28;20052;-74
2023/09/04 10:57:57;;;;;;;0.00;0.00;;;33.30;36.60;;;;;;5044651;28;20040;-79
2023/09/04 11:00:41;;;;;;;0.00;0.00;;;33.10;36.20;;;;;;5044274;28;20021;-76
2023/09/04 11:03:21;;;;;;;0.00;0.00;;;33.20;37.10;;;;;;5044110;28;20067;-75
2023/09/04 11:06:02;;;;;;;0.00;0.00;;;33.10;36.50;;;;;;5043219;28;20099;-76
2023/09/04 11:08:33;;;;;;;0.00;0.00;;;32.90;36.60;;;;;;5043367;28;20029;-76
2023/09/04 11:11:04;;;;;;;0.00;0.00;;;32.90;36.60;;;;;;5042136;28;20107;-80
2023/09/04 11:13:33;;;;;;;0.00;0.00;;;33.00;37.50;;;;;;5041684;28;20554;-75
2023/09/04 11:15:58;;;;;;;0.00;0.00;;;32.90;37.40;;;;;;5039046;28;20028;-76
2023/09/04 11:18:31;;;;;;;0.00;0.00;;;33.00;37.90;;;;;;5042019;28;20451;-78
2023/09/04 11:20:58;;;;;;;0.00;0.00;;;33.10;37.50;;;;;;5042362;28;20143;-76
2023/09/04 11:23:24;;;;;;;0.00;0.00;;;32.80;37.90;;;;;;5043397;28;20037;-76
2023/09/04 11:25:52;;;;;;;;;;;33.00;37.70;;;;;;5042228;28;20028;-73
2023/09/04 11:28:22;;;;;;;0.00;0.00;;;33.10;37.60;;;;;;5041522;28;20620;-80
2023/09/04 11:30:49;;;;;;;0.00;0.00;;;32.90;36.90;;;;;;5041444;28;20032;-73
2023/09/04 11:33:15;;;;;;;0.00;0.00;;;32.80;37.40;;;;;;5041259;28;20035;-75
2023/09/04 11:35:41;;;;;;;0.00;0.00;;;32.70;37.80;;;;;;5038694;28;20052;-74
2023/09/04 11:38:26;;;;;;;;;;;32.80;38.20;;;;;;5033297;28;20041;-78
2023/09/04 11:40:52;;;;;;;0.00;0.00;;;32.70;38.00;;;;;;5039069;28;19912;-75
2023/09/04 11:43:18;;;;;;;0.00;0.00;;;32.90;39.00;;;;;;5042921;28;20040;-75
2023/09/04 11:45:44;;;;;;;0.00;0.00;;;32.90;38.20;;;;;;5043072;28;20029;-75
2023/09/04 11:48:10;;;;;;;0.00;0.00;;;32.80;37.40;;;;;;5040467;28;20412;-77
2023/09/04 11:50:36;;;;;;;0.00;0.00;;;32.90;38.40;;;;;;5030808;28;20083;-75
2023/09/04 11:53:03;;;;;;;0.00;0.00;;;32.80;37.40;;;;;;5042027;28;20023;-76
2023/09/04 11:55:28;;;;;;;0.00;0.00;;;32.80;39.10;;;;;;5042314;28;20056;-77
2023/09/04 11:57:55;;;;;;;0.00;0.00;;;32.80;38.50;;;;;;5042837;28;20198;-75
2023/09/04 12:00:21;;;;;;;0.00;0.00;;;32.90;38.60;;;;;;5041620;28;20036;-73
2023/09/04 12:02:46;;;;;;;0.00;0.00;;;32.90;39.00;;;;;;5041111;28;20025;-74
2023/09/04 12:05:15;;;;;;;;;;;32.80;37.80;;;;;;5039732;28;20033;-76
2023/09/04 12:07:41;;;;;;;0.00;0.00;;;32.80;38.30;;;;;;5040849;28;20372;-74
2023/09/04 12:10:07;;;;;;;0.00;0.00;;;32.90;37.80;;;;;;5039372;28;20091;-76
2023/09/04 12:12:33;;;;;;;0.00;0.00;;;32.90;37.10;;;;;;5040176;28;21634;-75
2023/09/04 12:15:00;;;;;;;;;;;32.80;38.40;;;;;;5040129;28;20025;-75
2023/09/04 12:17:29;;;;;;;0.00;0.00;;;32.90;38.70;;;;;;5039839;28;19927;-74
2023/09/04 12:19:55;;;;;;;0.00;0.00;;;32.90;37.30;;;;;;5041294;28;20021;-73
2023/09/04 12:22:21;;;;;;;0.00;0.00;;;32.90;38.80;;;;;;5037194;28;20043;-73
2023/09/04 12:25:06;;;;;;;0.00;0.00;;;32.90;39.20;;;;;;5039247;28;20033;-78
2023/09/04 12:27:36;;;;;;;0.00;0.00;;;32.90;38.40;;;;;;5039884;28;20032;-78
2023/09/04 12:30:04;;;;;;;0.00;0.00;;;33.00;38.70;;;;;;5040969;28;20029;-76
2023/09/04 12:32:33;;;;;;;0.00;0.00;;;33.10;36.60;;;;;;5041092;28;20101;-76
2023/09/04 12:35:01;;;;;;;0.00;0.00;;;33.10;36.50;;;;;;5042905;28;20063;-76
2023/09/04 12:37:38;;;;;;;0.00;0.00;;;33.10;36.50;;;;;;5042686;28;20109;-75
2023/09/04 12:40:05;;;;;;;0.00;0.00;;;33.10;37.30;;;;;;5038977;28;20037;-76
2023/09/04 12:42:31;;;;;;;0.00;0.00;;;33.10;37.50;;;;;;5041827;28;20029;-79
2023/09/04 12:44:57;;;;;;;;;;;33.00;37.50;;;;;;5038031;28;20032;-78
2023/09/04 12:47:22;;;;;;;0.00;0.00;;;33.10;37.60;;;;;;5037279;28;19912;-83
2023/09/04 12:49:48;;;;;;;;;;;33.10;38.80;;;;;;5037011;28;20060;-77